createdAt,value
2023-05-31T00:01:49.764Z,5.30
2023-05-31T00:04:16.528Z,5.15
2023-05-31T00:06:43.328Z,6.03
2023-05-31T00:09:10.104Z,6.95
2023-05-31T00:11:37.114Z,7.55
2023-05-31T00:14:05.323Z,6.43
2023-05-31T00:17:03.311Z,6.03
2023-05-31T00:19:20.591Z,5.75
2023-05-31T00:21:47.590Z,5.93
2023-05-31T00:24:14.489Z,6.25
2023-05-31T00:26:41.253Z,6.82
2023-05-31T00:29:09.518Z,8.10
2023-05-31T00:31:36.323Z,5.75
2023-05-31T00:34:03.238Z,10.18
2023-05-31T00:36:30.005Z,6.70
2023-05-31T00:38:56.777Z,5.85
2023-05-31T00:41:23.567Z,7.28
2023-05-31T00:43:50.376Z,7.03
2023-05-31T00:46:28.772Z,7.05
2023-05-31T00:48:56.524Z,9.20
2023-05-31T00:51:25.027Z,6.00
2023-05-31T00:53:52.893Z,5.00
2023-05-31T00:56:20.151Z,9.70
2023-05-31T00:58:47.447Z,6.22
2023-05-31T01:01:15.377Z,6.28
2023-05-31T01:03:43.592Z,5.75
2023-05-31T01:06:11.170Z,7.32
2023-05-31T01:08:41.641Z,6.18
2023-05-31T01:11:13.737Z,6.28
2023-05-31T01:13:47.809Z,6.00
2023-05-31T01:16:22.788Z,7.90
2023-05-31T01:18:57.413Z,7.07
2023-05-31T01:21:38.620Z,9.40
2023-05-31T01:24:22.015Z,7.32
2023-05-31T01:26:51.328Z,9.95
2023-05-31T01:29:19.869Z,7.65
2023-05-31T01:31:47.948Z,9.15
2023-05-31T01:34:15.352Z,8.20
2023-05-31T01:36:42.128Z,7.70
2023-05-31T01:39:10.205Z,11.18
2023-05-31T01:41:39.418Z,8.43
2023-05-31T01:44:08.379Z,8.88
2023-05-31T01:46:35.371Z,7.07
2023-05-31T01:49:02.841Z,9.43
2023-05-31T01:51:31.040Z,7.53
2023-05-31T01:53:58.145Z,9.10
2023-05-31T01:56:26.277Z,6.82
2023-05-31T01:58:53.710Z,8.77
2023-05-31T02:01:23.217Z,8.15
2023-05-31T02:03:50.742Z,7.93
2023-05-31T02:06:17.914Z,9.52
2023-05-31T02:08:45.027Z,7.80
2023-05-31T02:11:12.037Z,7.82
2023-05-31T02:13:38.819Z,9.25
2023-05-31T02:16:06.320Z,8.60
2023-05-31T02:18:34.405Z,10.07
2023-05-31T02:21:01.318Z,7.73
2023-05-31T02:23:28.378Z,8.40
2023-05-31T02:25:55.201Z,11.30
2023-05-31T02:28:22.240Z,8.80
2023-05-31T02:30:55.996Z,9.23
2023-05-31T02:33:22.828Z,8.80
2023-05-31T02:35:50.948Z,8.23
2023-05-31T02:38:17.845Z,9.43
2023-05-31T02:40:44.639Z,12.90
2023-05-31T02:43:11.510Z,9.63
2023-05-31T02:45:38.296Z,12.40
2023-05-31T02:48:05.393Z,11.77
2023-05-31T02:50:32.931Z,9.05
2023-05-31T02:53:01.341Z,8.85
2023-05-31T02:55:28.309Z,10.32
2023-05-31T02:57:55.066Z,9.32
2023-05-31T03:00:21.884Z,12.90
2023-05-31T03:02:48.715Z,11.43
2023-05-31T03:05:15.589Z,10.23
2023-05-31T03:07:42.364Z,13.18
2023-05-31T03:10:10.907Z,11.82
2023-05-31T03:12:37.785Z,10.85
2023-05-31T03:15:05.643Z,13.35
2023-05-31T03:17:32.504Z,12.60
2023-05-31T03:19:59.387Z,11.18
2023-05-31T03:22:26.791Z,14.13
2023-05-31T03:24:53.791Z,14.07
2023-05-31T03:27:21.944Z,13.90
2023-05-31T03:29:48.769Z,10.87
2023-05-31T03:32:15.557Z,12.60
2023-05-31T03:34:42.387Z,14.10
2023-05-31T03:37:09.201Z,11.73
2023-05-31T03:39:36.289Z,11.05
2023-05-31T03:42:03.158Z,12.35
2023-05-31T03:44:31.300Z,14.15
2023-05-31T03:46:58.484Z,15.43
2023-05-31T03:49:25.299Z,16.35
2023-05-31T03:51:52.388Z,12.65
2023-05-31T03:54:20.957Z,14.20
2023-05-31T03:56:47.751Z,14.32
2023-05-31T03:59:14.639Z,12.70
2023-05-31T04:01:42.812Z,14.73
2023-05-31T04:04:09.715Z,13.80
2023-05-31T04:06:36.594Z,14.52
2023-05-31T04:09:03.485Z,11.75
2023-05-31T04:11:30.282Z,13.70
2023-05-31T04:13:57.154Z,14.80
2023-05-31T04:16:26.251Z,15.82
2023-05-31T04:18:55.181Z,13.88
2023-05-31T04:21:22.217Z,16.23
2023-05-31T04:23:49.643Z,14.43
2023-05-31T04:26:17.118Z,13.88
2023-05-31T04:28:46.031Z,13.85
2023-05-31T04:33:39.514Z,11.95
2023-05-31T04:36:08.883Z,10.52
2023-05-31T04:38:35.631Z,9.82
2023-05-31T04:41:05.412Z,11.15
2023-05-31T04:43:37.418Z,11.00
2023-05-31T04:46:04.224Z,10.68
2023-05-31T04:48:31.012Z,10.00
2023-05-31T04:51:02.638Z,10.18
2023-05-31T04:53:31.008Z,14.45
2023-05-31T04:55:57.756Z,12.88
2023-05-31T04:58:27.379Z,14.50
2023-05-31T05:00:54.175Z,12.32
2023-05-31T05:03:21.025Z,11.43
2023-05-31T05:05:51.017Z,9.77
2023-05-31T05:08:19.335Z,11.98
2023-05-31T05:10:49.986Z,10.88
2023-05-31T05:13:16.739Z,11.25
2023-05-31T05:15:43.521Z,9.68
2023-05-31T05:18:10.445Z,11.85
2023-05-31T05:20:37.327Z,11.20
2023-05-31T05:23:04.183Z,11.32
2023-05-31T05:25:30.931Z,11.05
2023-05-31T05:27:59.014Z,10.95
2023-05-31T05:30:32.001Z,12.20
2023-05-31T05:32:58.869Z,13.00
2023-05-31T05:35:27.604Z,14.50
2023-05-31T05:37:54.362Z,14.35
2023-05-31T05:40:21.138Z,11.25
2023-05-31T05:42:48.895Z,11.63
2023-05-31T05:45:17.176Z,13.57
2023-05-31T05:47:43.974Z,12.55
2023-05-31T05:50:11.497Z,14.73
2023-05-31T05:52:38.379Z,11.35
2023-05-31T05:55:05.514Z,11.95
2023-05-31T05:57:32.283Z,13.93
2023-05-31T05:59:59.191Z,11.50
2023-05-31T06:02:27.331Z,12.52
2023-05-31T06:04:54.212Z,12.10
2023-05-31T06:07:20.981Z,12.90
2023-05-31T06:09:47.774Z,13.80
2023-05-31T06:12:15.244Z,14.05
2023-05-31T06:14:42.054Z,11.50
2023-05-31T06:17:08.861Z,11.98
2023-05-31T06:19:36.988Z,12.98
2023-05-31T06:22:03.989Z,12.73
2023-05-31T06:24:30.854Z,11.88
2023-05-31T06:26:57.629Z,11.40
2023-05-31T06:29:24.430Z,12.30
2023-05-31T06:31:51.258Z,10.77
2023-05-31T06:34:21.143Z,11.50
2023-05-31T06:36:49.254Z,11.23
2023-05-31T06:39:16.011Z,12.38
2023-05-31T06:41:42.825Z,11.15
2023-05-31T06:44:09.590Z,13.77
2023-05-31T06:46:36.362Z,12.27
2023-05-31T06:49:11.831Z,11.85
2023-05-31T06:51:39.722Z,10.32
2023-05-31T06:54:08.819Z,10.60
2023-05-31T06:56:35.631Z,10.02
2023-05-31T06:59:02.436Z,10.00
2023-05-31T07:01:29.239Z,9.68
2023-05-31T07:03:56.225Z,10.95
2023-05-31T07:06:23.852Z,12.10
2023-05-31T07:08:50.637Z,9.60
2023-05-31T07:11:19.008Z,10.93
2023-05-31T07:13:45.800Z,12.73
2023-05-31T07:16:12.891Z,9.30
2023-05-31T07:18:39.725Z,9.45
2023-05-31T07:21:06.620Z,11.30
2023-05-31T07:23:33.423Z,9.57
2023-05-31T07:26:00.200Z,9.88
2023-05-31T07:28:28.378Z,9.95
2023-05-31T07:30:55.242Z,10.48
2023-05-31T07:33:29.077Z,9.02
2023-05-31T07:35:59.078Z,10.65
2023-05-31T07:38:26.069Z,11.30
2023-05-31T07:40:53.037Z,8.30
2023-05-31T07:43:20.076Z,8.93
2023-05-31T07:45:48.499Z,9.48
2023-05-31T07:48:15.315Z,13.43
2023-05-31T07:50:42.094Z,8.10
2023-05-31T07:53:08.883Z,8.65
2023-05-31T07:55:35.700Z,7.20
2023-05-31T07:58:03.670Z,9.82
2023-05-31T08:00:32.294Z,9.00
2023-05-31T08:03:01.990Z,7.00
2023-05-31T08:05:28.863Z,11.85
2023-05-31T08:07:55.706Z,8.55
2023-05-31T08:10:22.451Z,8.73
2023-05-31T08:12:49.240Z,11.82
2023-05-31T08:15:15.999Z,9.10
2023-05-31T08:17:44.225Z,7.82
2023-05-31T08:20:12.884Z,9.65
2023-05-31T08:25:07.023Z,8.65
2023-05-31T08:27:35.271Z,7.68
2023-05-31T08:30:02.154Z,7.88
2023-05-31T08:32:28.971Z,6.97
2023-05-31T08:34:55.776Z,8.18
2023-05-31T08:37:23.907Z,7.13
2023-05-31T08:39:50.692Z,8.50
2023-05-31T08:42:22.635Z,10.68
2023-05-31T08:44:52.425Z,8.77
2023-05-31T08:47:24.338Z,9.85
2023-05-31T08:49:51.792Z,8.30
2023-05-31T08:52:18.964Z,9.20
2023-05-31T08:54:47.766Z,8.93
2023-05-31T08:57:14.907Z,7.97
2023-05-31T08:59:42.277Z,6.00
2023-05-31T09:02:11.056Z,7.82
2023-05-31T09:04:40.865Z,9.18
2023-05-31T09:07:07.746Z,7.47
2023-05-31T09:09:34.633Z,6.93
2023-05-31T09:12:03.309Z,7.32
2023-05-31T09:16:57.940Z,5.00
2023-05-31T09:19:24.726Z,8.95
2023-05-31T09:21:53.219Z,8.60
2023-05-31T09:24:20.152Z,7.50
2023-05-31T09:26:47.587Z,6.32
2023-05-31T09:29:16.030Z,8.20
2023-05-31T09:31:42.844Z,7.65
2023-05-31T09:34:25.303Z,7.80
2023-05-31T09:36:52.124Z,5.22
2023-05-31T09:39:19.016Z,8.68
2023-05-31T09:41:49.595Z,10.35
2023-05-31T09:44:17.878Z,7.85
2023-05-31T09:46:46.235Z,9.20
2023-05-31T09:49:13.563Z,7.55
2023-05-31T09:51:40.349Z,6.57
2023-05-31T09:54:11.857Z,5.53
2023-05-31T09:56:39.898Z,5.88
2023-05-31T09:59:07.116Z,11.60
2023-05-31T10:01:36.597Z,6.13
2023-05-31T10:04:04.222Z,7.97
2023-05-31T10:06:31.785Z,5.55
2023-05-31T10:08:58.574Z,7.03
2023-05-31T10:11:28.044Z,5.40
2023-05-31T10:14:00.169Z,8.85
2023-05-31T10:16:29.514Z,7.55
2023-05-31T10:19:03.097Z,5.10
2023-05-31T10:21:30.256Z,5.43
2023-05-31T10:24:02.873Z,7.38
2023-05-31T10:26:36.550Z,6.95
2023-05-31T10:29:10.821Z,11.55
2023-05-31T10:31:41.856Z,5.45
2023-05-31T10:34:17.120Z,10.15
2023-05-31T10:36:44.971Z,5.38
2023-05-31T10:39:20.412Z,7.15
2023-05-31T10:41:54.493Z,6.18
2023-05-31T10:44:28.949Z,5.03
2023-05-31T10:47:02.270Z,7.43
2023-05-31T10:49:33.639Z,4.68
2023-05-31T10:52:05.613Z,8.57
2023-05-31T10:54:34.064Z,3.72
2023-05-31T10:57:04.487Z,7.80
2023-05-31T10:59:40.679Z,5.78
2023-05-31T11:02:09.341Z,5.43
2023-05-31T11:04:37.769Z,7.65
2023-05-31T11:07:13.510Z,5.63
2023-05-31T11:09:40.544Z,6.43
2023-05-31T11:12:07.575Z,8.85
2023-05-31T11:14:34.455Z,5.93
2023-05-31T11:17:17.242Z,5.75
2023-05-31T11:19:55.530Z,6.03
2023-05-31T11:22:28.924Z,5.25
2023-05-31T11:24:56.872Z,5.95
2023-05-31T11:27:34.466Z,6.50
2023-05-31T11:30:01.320Z,6.57
2023-05-31T11:33:07.868Z,7.13
2023-05-31T11:35:36.167Z,7.50
2023-05-31T11:38:04.925Z,5.97
2023-05-31T11:40:31.785Z,7.05
2023-05-31T11:43:06.755Z,6.97
2023-05-31T11:45:38.476Z,5.75
2023-05-31T11:48:18.279Z,6.68
2023-05-31T11:50:46.491Z,5.80
2023-05-31T11:53:15.124Z,7.90
2023-05-31T11:55:48.529Z,8.45
2023-05-31T11:58:20.134Z,6.50
2023-05-31T12:00:47.199Z,7.15
2023-05-31T12:03:16.087Z,7.30
2023-05-31T12:05:43.272Z,9.48
2023-05-31T12:08:11.414Z,4.85
2023-05-31T12:10:40.857Z,7.50
2023-05-31T12:13:07.669Z,7.93
2023-05-31T12:15:34.484Z,5.03
2023-05-31T12:18:01.625Z,6.57
2023-05-31T12:20:29.795Z,5.60
2023-05-31T12:23:11.627Z,6.03
2023-05-31T12:25:47.154Z,4.97
2023-05-31T12:28:14.073Z,3.47
2023-05-31T12:30:47.881Z,5.22
2023-05-31T12:33:15.272Z,5.30
2023-05-31T12:35:43.511Z,5.25
2023-05-31T12:38:11.992Z,6.75
2023-05-31T12:43:06.679Z,8.90
2023-05-31T12:45:38.912Z,6.87
2023-05-31T12:48:08.517Z,6.88
2023-05-31T12:50:35.483Z,4.70
2023-05-31T12:53:06.268Z,9.38
2023-05-31T12:55:34.406Z,5.95
2023-05-31T12:58:04.129Z,8.68
2023-05-31T13:00:33.609Z,8.40
2023-05-31T13:03:00.499Z,5.88
2023-05-31T13:05:29.267Z,5.82
2023-05-31T13:08:01.267Z,7.88
2023-05-31T13:10:28.093Z,10.77
2023-05-31T13:12:56.261Z,6.10
2023-05-31T13:15:23.094Z,7.57
2023-05-31T13:17:49.955Z,4.50
2023-05-31T13:20:17.103Z,8.23
2023-05-31T13:22:43.909Z,8.07
2023-05-31T13:25:12.245Z,7.38
2023-05-31T13:27:39.106Z,6.57
2023-05-31T13:30:10.924Z,6.07
2023-05-31T13:32:37.772Z,8.15
2023-05-31T13:35:05.582Z,6.85
2023-05-31T13:37:32.453Z,4.90
2023-05-31T13:40:02.373Z,7.53
2023-05-31T13:42:29.187Z,5.82
2023-05-31T13:44:56.141Z,6.47
2023-05-31T13:47:24.351Z,6.95
2023-05-31T13:49:51.189Z,4.55
2023-05-31T13:52:17.996Z,7.30
2023-05-31T13:54:44.802Z,6.88
2023-05-31T13:57:11.567Z,8.50
2023-05-31T13:59:38.343Z,5.57
2023-05-31T14:02:05.356Z,5.82
2023-05-31T14:04:33.516Z,7.65
2023-05-31T14:07:00.406Z,5.95
2023-05-31T14:09:27.192Z,6.63
2023-05-31T14:12:00.181Z,6.55
2023-05-31T14:14:29.484Z,6.15
2023-05-31T14:16:56.359Z,6.10
2023-05-31T14:19:25.830Z,7.00
2023-05-31T14:23:03.124Z,4.80
2023-05-31T14:27:56.657Z,4.28
2023-05-31T14:30:23.558Z,5.25
2023-05-31T14:32:53.176Z,4.95
2023-05-31T14:35:20.442Z,3.95
2023-05-31T14:37:56.487Z,7.05
2023-05-31T14:40:32.596Z,3.72
2023-05-31T14:43:02.480Z,6.22
2023-05-31T14:45:29.238Z,7.72
2023-05-31T14:47:56.244Z,8.20
2023-05-31T14:50:23.186Z,5.40
2023-05-31T14:52:49.997Z,4.03
2023-05-31T14:55:16.824Z,5.72
2023-05-31T14:57:44.985Z,6.72
2023-05-31T15:00:15.804Z,5.75
2023-05-31T15:02:45.601Z,6.55
2023-05-31T15:05:12.412Z,6.38
2023-05-31T15:07:39.226Z,6.40
2023-05-31T15:10:06.762Z,4.18
2023-05-31T15:12:33.618Z,6.05
2023-05-31T15:15:02.926Z,5.85
2023-05-31T15:17:29.947Z,5.40
2023-05-31T15:20:02.023Z,8.63
2023-05-31T15:22:30.136Z,4.78
2023-05-31T15:24:59.603Z,4.15
2023-05-31T15:27:29.510Z,8.88
2023-05-31T15:29:56.364Z,4.68
2023-05-31T15:32:24.482Z,7.30
2023-05-31T15:34:51.284Z,6.20
2023-05-31T15:37:18.165Z,5.60
2023-05-31T15:39:45.004Z,5.28
2023-05-31T15:42:11.832Z,7.13
2023-05-31T15:44:41.028Z,4.97
2023-05-31T15:47:08.359Z,6.72
2023-05-31T15:49:36.489Z,3.70
2023-05-31T15:52:03.449Z,7.97
2023-05-31T15:54:30.273Z,3.38
2023-05-31T15:56:57.102Z,4.53
2023-05-31T15:59:23.974Z,6.38
2023-05-31T16:01:50.826Z,6.03
2023-05-31T16:04:17.676Z,5.30
2023-05-31T16:06:45.833Z,6.80
2023-05-31T16:09:12.666Z,2.97
2023-05-31T16:11:39.478Z,6.00
2023-05-31T16:14:06.323Z,10.43
2023-05-31T16:16:33.146Z,4.75
2023-05-31T16:19:00.024Z,3.85
2023-05-31T16:21:27.055Z,7.22
2023-05-31T16:23:55.378Z,5.97
2023-05-31T16:26:22.388Z,5.05
2023-05-31T16:28:49.397Z,4.05
2023-05-31T16:31:21.625Z,4.32
2023-05-31T16:33:48.781Z,4.82
2023-05-31T16:36:15.678Z,5.65
2023-05-31T16:38:42.439Z,4.35
2023-05-31T16:41:10.723Z,6.40
2023-05-31T16:43:37.549Z,6.68
2023-05-31T16:46:04.607Z,7.50
2023-05-31T16:48:31.550Z,4.85
2023-05-31T16:50:58.386Z,4.50
2023-05-31T16:53:25.222Z,4.55
2023-05-31T16:55:54.083Z,4.28
2023-05-31T16:58:29.486Z,4.72
2023-05-31T17:00:56.289Z,4.15
2023-05-31T17:03:23.307Z,3.83
2023-05-31T17:05:50.431Z,4.68
2023-05-31T17:08:17.345Z,5.85
2023-05-31T17:10:44.290Z,7.65
2023-05-31T17:13:11.203Z,6.65
2023-05-31T17:15:42.118Z,6.70
2023-05-31T17:18:08.999Z,6.95
2023-05-31T17:20:41.054Z,8.73
2023-05-31T17:23:07.816Z,8.15
2023-05-31T17:25:34.624Z,7.22
2023-05-31T17:28:01.458Z,10.30
2023-05-31T17:30:28.419Z,8.10
2023-05-31T17:32:56.790Z,9.70
2023-05-31T17:35:23.639Z,11.90
2023-05-31T17:37:50.465Z,7.97
2023-05-31T17:40:17.373Z,4.85
2023-05-31T17:42:44.779Z,5.82
2023-05-31T17:45:11.961Z,6.03
2023-05-31T17:47:39.028Z,8.77
2023-05-31T17:50:09.657Z,5.60
2023-05-31T17:52:38.196Z,5.75
2023-05-31T17:55:06.216Z,7.65
2023-05-31T17:57:33.654Z,7.47
2023-05-31T18:00:00.635Z,4.78
2023-05-31T18:02:27.737Z,6.45
2023-05-31T18:04:54.531Z,5.53
2023-05-31T18:07:22.694Z,8.85
2023-05-31T18:09:49.537Z,6.78
2023-05-31T18:12:16.319Z,8.35
2023-05-31T18:14:43.096Z,8.30
2023-05-31T18:17:10.009Z,6.80
2023-05-31T18:19:36.807Z,5.53
2023-05-31T18:22:04.128Z,7.85
2023-05-31T18:24:32.526Z,8.02
2023-05-31T18:27:13.028Z,6.20
2023-05-31T18:29:39.934Z,7.65
2023-05-31T18:32:07.610Z,9.00
2023-05-31T18:34:34.755Z,7.30
2023-05-31T18:37:03.848Z,6.25
2023-05-31T18:39:32.063Z,5.72
2023-05-31T18:41:58.880Z,5.25
2023-05-31T18:44:26.860Z,5.30
2023-05-31T18:46:53.739Z,5.35
2023-05-31T18:49:20.680Z,5.07
2023-05-31T18:51:47.492Z,5.65
2023-05-31T18:54:14.519Z,7.47
2023-05-31T18:56:42.632Z,8.43
2023-05-31T18:59:09.430Z,3.65
2023-05-31T19:01:40.301Z,6.20
2023-05-31T19:04:07.345Z,6.68
2023-05-31T19:06:36.905Z,6.88
2023-05-31T19:09:07.100Z,7.25
2023-05-31T19:11:34.091Z,6.75
2023-05-31T19:14:02.297Z,4.88
2023-05-31T19:16:29.138Z,7.18
2023-05-31T19:18:56.152Z,6.05
2023-05-31T19:21:23.015Z,3.85
2023-05-31T19:23:49.817Z,5.93
2023-05-31T19:26:16.638Z,6.10
2023-05-31T19:28:43.549Z,8.77
2023-05-31T19:31:11.716Z,4.82
2023-05-31T19:33:38.581Z,3.95
2023-05-31T19:36:05.786Z,5.68
2023-05-31T19:38:34.710Z,5.75
2023-05-31T19:41:01.934Z,7.72
2023-05-31T19:43:30.441Z,6.60
2023-05-31T19:45:58.510Z,8.57
2023-05-31T19:48:27.047Z,8.70
2023-05-31T19:50:55.114Z,8.18
2023-05-31T19:53:21.941Z,8.30
2023-05-31T19:55:48.908Z,9.55
2023-05-31T19:58:15.692Z,7.82
2023-05-31T20:00:42.520Z,8.07
2023-05-31T20:03:15.640Z,8.10
2023-05-31T20:05:43.849Z,10.40
2023-05-31T20:08:10.896Z,6.80
2023-05-31T20:10:37.675Z,7.85
2023-05-31T20:13:04.580Z,8.05
2023-05-31T20:15:31.391Z,10.68
2023-05-31T20:17:58.299Z,15.65
2023-05-31T20:20:25.143Z,7.53
2023-05-31T20:22:53.308Z,11.13
2023-05-31T20:25:20.287Z,6.07
2023-05-31T20:27:50.036Z,8.82
2023-05-31T20:30:19.587Z,6.60
2023-05-31T20:32:48.601Z,8.45
2023-05-31T20:35:15.513Z,6.50
2023-05-31T20:37:42.338Z,10.02
2023-05-31T20:40:11.754Z,9.23
2023-05-31T20:42:38.541Z,7.35
2023-05-31T20:45:07.058Z,5.38
2023-05-31T20:47:33.913Z,10.32
2023-05-31T20:50:00.779Z,4.75
2023-05-31T20:52:27.566Z,4.45
2023-05-31T20:54:54.436Z,6.25
2023-05-31T20:57:22.845Z,5.57
2023-05-31T20:59:49.776Z,7.80
2023-05-31T21:02:16.614Z,9.73
2023-05-31T21:04:43.438Z,8.60
2023-05-31T21:07:10.288Z,8.38
2023-05-31T21:09:37.067Z,9.98
2023-05-31T21:12:04.407Z,8.15
2023-05-31T21:14:32.635Z,10.00
2023-05-31T21:16:59.429Z,8.13
2023-05-31T21:19:26.292Z,6.35
2023-05-31T21:21:53.170Z,6.45
2023-05-31T21:24:20.035Z,9.18
2023-05-31T21:26:46.866Z,8.65
2023-05-31T21:29:13.635Z,10.00
2023-05-31T21:31:41.888Z,6.80
2023-05-31T21:34:08.695Z,9.30
2023-05-31T21:36:35.552Z,7.35
2023-05-31T21:39:17.245Z,6.63
2023-05-31T21:41:44.065Z,8.20
2023-05-31T21:44:10.952Z,7.88
2023-05-31T21:46:37.899Z,9.65
2023-05-31T21:49:06.026Z,9.93
2023-05-31T21:51:34.656Z,7.10
2023-05-31T21:54:03.676Z,8.77
2023-05-31T21:58:57.254Z,9.00
2023-05-31T22:01:24.328Z,9.70
2023-05-31T22:03:51.652Z,7.57
2023-05-31T22:06:20.158Z,9.98
2023-05-31T22:08:47.090Z,7.80
2023-05-31T22:11:13.862Z,10.23
2023-05-31T22:13:40.642Z,8.63
2023-05-31T22:16:07.481Z,8.45
2023-05-31T22:18:34.300Z,10.68
2023-05-31T22:21:01.403Z,9.73
2023-05-31T22:23:29.812Z,11.95
2023-05-31T22:25:59.348Z,10.25
2023-05-31T22:28:33.492Z,9.75
2023-05-31T22:31:03.858Z,10.60
2023-05-31T22:33:31.075Z,10.20
2023-05-31T22:35:57.921Z,10.40
2023-05-31T22:38:24.714Z,11.80
2023-05-31T22:40:52.855Z,12.18
2023-05-31T22:43:19.677Z,13.55
2023-05-31T22:45:46.620Z,12.57
2023-05-31T22:48:13.395Z,15.80
2023-05-31T22:50:40.216Z,12.35
2023-05-31T22:53:07.035Z,11.43
2023-05-31T22:55:33.915Z,14.80
2023-05-31T22:58:02.393Z,12.35
2023-05-31T23:00:32.071Z,14.45
2023-05-31T23:02:59.000Z,13.63
2023-05-31T23:05:25.988Z,14.25
2023-05-31T23:07:53.387Z,13.32
2023-05-31T23:10:20.572Z,11.20
2023-05-31T23:12:47.623Z,12.02
2023-05-31T23:15:16.301Z,12.48
2023-05-31T23:17:43.210Z,16.15
2023-05-31T23:20:12.194Z,17.30
2023-05-31T23:25:07.253Z,11.73
2023-05-31T23:27:34.559Z,15.27
2023-05-31T23:30:01.343Z,14.50
2023-05-31T23:32:29.506Z,12.25
2023-05-31T23:34:56.501Z,18.38
2023-05-31T23:37:23.340Z,12.65
2023-05-31T23:39:50.161Z,11.77
2023-05-31T23:42:17.054Z,14.02
2023-05-31T23:44:43.875Z,15.18
2023-05-31T23:47:10.752Z,15.85
2023-05-31T23:49:39.397Z,17.85
2023-05-31T23:52:06.862Z,13.68
2023-05-31T23:54:33.801Z,14.98
2023-05-31T23:57:00.659Z,14.98
2023-05-31T23:59:27.817Z,16.42
